createdAt,value
2023-03-07T00:01:51.656Z,100.00
2023-03-07T00:06:57.141Z,100.00
2023-03-07T00:12:02.972Z,100.00
2023-03-07T00:17:07.405Z,100.00
2023-03-07T00:22:14.556Z,100.00
2023-03-07T00:27:20.724Z,100.00
2023-03-07T00:32:25.892Z,100.00
2023-03-07T00:37:30.968Z,100.00
2023-03-07T00:42:36.926Z,100.00
2023-03-07T00:47:41.450Z,100.00
2023-03-07T00:52:46.093Z,100.00
2023-03-07T00:57:52.738Z,100.00
2023-03-07T01:03:02.246Z,100.00
2023-03-07T01:08:06.896Z,100.00
2023-03-07T01:13:13.790Z,100.00
2023-03-07T01:18:18.610Z,100.00
2023-03-07T01:23:23.526Z,100.00
2023-03-07T01:28:29.836Z,100.00
2023-03-07T01:33:34.601Z,100.00
2023-03-07T01:38:39.725Z,100.00
2023-03-07T01:43:46.103Z,100.00
2023-03-07T01:48:59.421Z,100.00
2023-03-07T01:54:07.574Z,100.00
2023-03-07T01:59:15.483Z,100.00
2023-03-07T02:04:24.206Z,100.00
2023-03-07T02:09:30.354Z,100.00
2023-03-07T02:14:36.792Z,100.00
2023-03-07T02:19:55.516Z,100.00
2023-03-07T02:25:03.940Z,100.00
2023-03-07T02:30:12.627Z,100.00
2023-03-07T02:35:19.710Z,100.00
2023-03-07T02:40:30.929Z,100.00
2023-03-07T02:45:37.296Z,100.00
2023-03-07T02:50:42.044Z,100.00
2023-03-07T02:55:47.449Z,100.00
2023-03-07T03:00:53.343Z,100.00
2023-03-07T03:05:57.919Z,100.00
2023-03-07T03:11:02.397Z,100.00
2023-03-07T03:16:09.296Z,100.00
2023-03-07T03:21:15.051Z,100.00
2023-03-07T03:26:19.750Z,100.00
2023-03-07T03:31:25.964Z,100.00
2023-03-07T03:36:30.414Z,100.00
2023-03-07T03:41:39.774Z,100.00
2023-03-07T03:46:46.023Z,100.00
2023-03-07T03:51:50.164Z,100.00
2023-03-07T03:56:55.928Z,100.00
2023-03-07T04:02:04.254Z,100.00
2023-03-07T04:07:12.356Z,100.00
2023-03-07T04:12:20.024Z,100.00
2023-03-07T04:17:29.282Z,100.00
2023-03-07T04:22:37.193Z,100.00
2023-03-07T04:27:44.994Z,100.00
2023-03-07T04:32:54.206Z,100.00
2023-03-07T04:38:02.624Z,100.00
2023-03-07T04:43:10.289Z,100.00
2023-03-07T04:48:20.689Z,100.00
2023-03-07T04:53:28.808Z,100.00
2023-03-07T04:58:39.232Z,100.00
2023-03-07T05:03:48.191Z,100.00
2023-03-07T05:08:56.384Z,100.00
2023-03-07T05:14:03.331Z,100.00
2023-03-07T05:19:10.868Z,100.00
2023-03-07T05:24:17.990Z,100.00
2023-03-07T05:29:24.728Z,100.00
2023-03-07T05:34:32.305Z,100.00
2023-03-07T05:39:39.673Z,100.00
2023-03-07T05:44:47.602Z,100.00
2023-03-07T05:49:56.167Z,100.00
2023-03-07T05:55:03.315Z,100.00
2023-03-07T06:00:13.317Z,100.00
2023-03-07T06:05:31.492Z,100.00
2023-03-07T06:10:40.723Z,100.00
2023-03-07T06:15:52.780Z,100.00
2023-03-07T06:21:04.762Z,100.00
2023-03-07T06:26:16.652Z,100.00
2023-03-07T06:31:27.039Z,100.00
2023-03-07T06:36:36.945Z,100.00
2023-03-07T06:41:44.477Z,100.00
2023-03-07T06:46:53.729Z,100.00
2023-03-07T06:52:04.110Z,100.00
2023-03-07T06:57:12.385Z,100.00
2023-03-07T07:02:20.591Z,100.00
2023-03-07T07:07:29.933Z,100.00
2023-03-07T07:12:37.733Z,100.00
2023-03-07T07:17:45.127Z,100.00
2023-03-07T07:22:54.603Z,100.00
2023-03-07T07:28:00.137Z,100.00
2023-03-07T07:33:07.284Z,100.00
2023-03-07T07:38:16.454Z,100.00
2023-03-07T07:43:23.941Z,100.00
2023-03-07T07:48:41.744Z,100.00
2023-03-07T07:53:50.722Z,100.00
2023-03-07T07:58:58.335Z,100.00
2023-03-07T08:04:06.769Z,100.00
2023-03-07T08:09:16.567Z,100.00
2023-03-07T08:14:27.518Z,100.00
2023-03-07T08:19:35.861Z,100.00
2023-03-07T08:24:44.933Z,100.00
2023-03-07T08:29:52.577Z,100.00
2023-03-07T08:34:58.008Z,100.00
2023-03-07T08:40:06.490Z,100.00
2023-03-07T08:45:14.179Z,100.00
2023-03-07T08:51:15.156Z,100.00
2023-03-07T08:56:34.771Z,100.00
2023-03-07T09:01:41.780Z,100.00
2023-03-07T09:06:49.466Z,100.00
2023-03-07T09:11:57.495Z,100.00
2023-03-07T09:17:05.179Z,100.00
2023-03-07T09:22:12.874Z,100.00
2023-03-07T09:27:22.060Z,100.00
2023-03-07T09:32:28.898Z,100.00
2023-03-07T09:37:37.215Z,100.00
2023-03-07T09:42:57.967Z,100.00
2023-03-07T09:48:37.145Z,100.00
2023-03-07T09:53:47.129Z,92.26
2023-03-07T09:59:06.635Z,87.68
2023-03-07T10:04:27.824Z,88.74
2023-03-07T10:09:35.978Z,89.38
2023-03-07T10:15:05.111Z,87.38
2023-03-07T10:20:24.919Z,80.60
2023-03-07T10:25:37.788Z,85.41
2023-03-07T10:30:45.486Z,90.10
2023-03-07T10:35:57.260Z,88.41
2023-03-07T10:41:10.317Z,88.32
2023-03-07T10:46:27.096Z,84.81
2023-03-07T10:51:46.649Z,84.18
2023-03-07T10:57:10.165Z,85.37
2023-03-07T11:02:36.573Z,85.79
2023-03-07T11:07:41.359Z,78.76
2023-03-07T11:12:47.400Z,78.94
2023-03-07T11:17:55.821Z,79.68
2023-03-07T11:23:24.008Z,83.55
2023-03-07T11:28:34.130Z,84.02
2023-03-07T11:34:00.328Z,81.60
2023-03-07T11:39:13.873Z,84.09
2023-03-07T11:44:36.032Z,83.66
2023-03-07T11:49:55.907Z,77.25
2023-03-07T11:55:16.878Z,73.80
2023-03-07T12:00:34.110Z,77.65
2023-03-07T12:05:52.663Z,75.55
2023-03-07T12:11:10.246Z,65.13
2023-03-07T12:16:27.936Z,58.99
2023-03-07T12:22:01.063Z,55.39
2023-03-07T12:27:14.526Z,53.39
2023-03-07T12:32:27.370Z,56.54
2023-03-07T12:37:42.031Z,63.61
2023-03-07T12:42:57.384Z,65.67
2023-03-07T12:48:12.554Z,66.18
2023-03-07T12:53:23.778Z,64.31
2023-03-07T12:58:41.206Z,62.89
2023-03-07T13:03:57.545Z,66.31
2023-03-07T13:09:05.988Z,67.16
2023-03-07T13:14:35.265Z,69.46
2023-03-07T13:19:55.246Z,66.48
2023-03-07T13:25:22.451Z,65.62
2023-03-07T13:30:29.210Z,66.00
2023-03-07T13:35:58.225Z,69.31
2023-03-07T13:41:05.415Z,68.89
2023-03-07T13:46:31.977Z,69.33
2023-03-07T13:51:38.094Z,65.63
2023-03-07T13:56:47.441Z,64.18
2023-03-07T14:01:59.483Z,63.81
2023-03-07T14:07:13.324Z,64.57
2023-03-07T14:12:31.295Z,62.24
2023-03-07T14:17:53.802Z,62.96
2023-03-07T14:23:21.788Z,65.66
2023-03-07T14:28:30.725Z,66.86
2023-03-07T14:33:42.904Z,66.13
2023-03-07T14:38:51.871Z,63.18
2023-03-07T14:44:10.352Z,66.67
2023-03-07T14:49:31.575Z,65.60
2023-03-07T14:54:40.322Z,66.71
2023-03-07T15:00:07.423Z,63.91
2023-03-07T15:05:18.823Z,65.55
2023-03-07T15:10:34.005Z,71.89
2023-03-07T15:15:47.368Z,72.52
2023-03-07T15:20:55.960Z,72.65
2023-03-07T15:26:05.955Z,75.79
2023-03-07T15:31:15.787Z,75.04
2023-03-07T15:36:28.495Z,81.51
2023-03-07T15:41:36.214Z,84.70
2023-03-07T15:46:47.064Z,83.22
2023-03-07T15:51:55.762Z,85.66
2023-03-07T15:57:05.337Z,88.51
2023-03-07T16:02:42.777Z,86.07
2023-03-07T16:07:50.734Z,87.33
2023-03-07T16:12:56.622Z,93.58
2023-03-07T16:18:03.425Z,94.23
2023-03-07T16:23:12.680Z,95.01
2023-03-07T16:28:17.086Z,95.69
2023-03-07T16:33:23.009Z,98.39
2023-03-07T16:38:27.561Z,94.10
2023-03-07T16:43:37.535Z,92.65
2023-03-07T16:48:43.687Z,100.00
2023-03-07T16:53:49.407Z,100.00
2023-03-07T16:58:54.617Z,100.00
2023-03-07T17:04:00.359Z,96.65
2023-03-07T17:09:05.033Z,96.13
2023-03-07T17:14:14.426Z,94.34
2023-03-07T17:19:28.405Z,98.27
2023-03-07T17:24:33.074Z,95.78
2023-03-07T17:29:41.706Z,100.00
2023-03-07T17:34:47.659Z,100.00
2023-03-07T17:39:52.151Z,100.00
2023-03-07T17:44:57.436Z,100.00
2023-03-07T17:50:05.537Z,100.00
2023-03-07T17:55:11.154Z,99.72
2023-03-07T18:00:16.193Z,100.00
2023-03-07T18:05:21.966Z,93.93
2023-03-07T18:10:26.689Z,93.17
2023-03-07T18:15:31.016Z,94.39
2023-03-07T18:20:37.277Z,95.45
2023-03-07T18:25:41.984Z,97.40
2023-03-07T18:30:48.968Z,92.54
2023-03-07T18:35:56.361Z,91.51
2023-03-07T18:41:08.616Z,87.58
2023-03-07T18:46:15.806Z,86.28
2023-03-07T18:51:25.189Z,86.06
2023-03-07T18:56:30.147Z,87.61
2023-03-07T19:01:35.808Z,83.87
2023-03-07T19:06:45.159Z,84.03
2023-03-07T19:11:49.747Z,87.60
2023-03-07T19:16:54.312Z,81.47
2023-03-07T19:22:00.849Z,83.09
2023-03-07T19:27:05.642Z,81.77
2023-03-07T19:32:10.065Z,83.12
2023-03-07T19:37:16.153Z,84.21
2023-03-07T19:42:20.647Z,86.04
2023-03-07T19:47:24.935Z,80.60
2023-03-07T19:52:30.659Z,84.70
2023-03-07T19:57:36.308Z,85.98
2023-03-07T20:02:40.713Z,84.25
2023-03-07T20:07:46.553Z,84.66
2023-03-07T20:12:53.030Z,88.24
2023-03-07T20:17:57.355Z,87.76
2023-03-07T20:23:03.441Z,88.02
2023-03-07T20:28:08.406Z,90.06
2023-03-07T20:33:12.733Z,87.82
2023-03-07T20:38:18.484Z,86.61
2023-03-07T20:43:23.143Z,87.63
2023-03-07T20:48:27.522Z,85.53
2023-03-07T20:53:33.489Z,86.72
2023-03-07T20:58:37.881Z,83.92
2023-03-07T21:03:42.188Z,87.22
2023-03-07T21:08:48.660Z,86.26
2023-03-07T21:13:53.075Z,86.54
2023-03-07T21:19:01.282Z,86.33
2023-03-07T21:24:08.044Z,86.80
2023-03-07T21:29:14.077Z,84.56
2023-03-07T21:34:18.135Z,82.95
2023-03-07T21:39:24.273Z,82.93
2023-03-07T21:44:28.658Z,84.08
2023-03-07T21:49:34.075Z,81.88
2023-03-07T21:54:39.815Z,83.53
2023-03-07T21:59:44.082Z,81.46
2023-03-07T22:04:48.473Z,85.93
2023-03-07T22:09:54.211Z,82.49
2023-03-07T22:14:58.566Z,83.15
2023-03-07T22:20:03.041Z,82.37
2023-03-07T22:25:09.604Z,86.35
2023-03-07T22:30:14.938Z,82.88
2023-03-07T22:35:19.439Z,85.12
2023-03-07T22:40:25.385Z,83.82
2023-03-07T22:45:29.705Z,87.13
2023-03-07T22:50:34.169Z,84.15
2023-03-07T22:55:42.816Z,86.86
2023-03-07T23:00:47.074Z,84.76
2023-03-07T23:05:51.449Z,83.17
2023-03-07T23:11:03.628Z,85.00
2023-03-07T23:16:10.757Z,85.20
2023-03-07T23:21:17.010Z,85.66
2023-03-07T23:26:25.905Z,88.07
2023-03-07T23:31:35.152Z,86.42
2023-03-07T23:36:39.617Z,87.49
2023-03-07T23:41:45.339Z,86.69
2023-03-07T23:46:50.043Z,87.90
2023-03-07T23:51:54.281Z,89.66
2023-03-07T23:56:59.976Z,88.52
